sensor_id;sensor_type;location;lat;lon;timestamp;pressure;altitude;pressure_sealevel;temperature;humidity
40155;BME280;25875;48.202;16.334;2023-09-30T00:00:33;99491.63;;;18.32;56.25
40155;BME280;25875;48.202;16.334;2023-09-30T00:03:00;99490.66;;;18.33;57.06
40155;BME280;25875;48.202;16.334;2023-09-30T00:05:28;99485.09;;;18.25;57.06
40155;BME280;25875;48.202;16.334;2023-09-30T00:07:55;99482.47;;;18.14;57.38
40155;BME280;25875;48.202;16.334;2023-09-30T00:10:22;99498.16;;;18.18;58.18
40155;BME280;25875;48.202;16.334;2023-09-30T00:12:49;99489.66;;;18.13;58.06
40155;BME280;25875;48.202;16.334;2023-09-30T00:15:15;99456.56;;;18.03;57.00
40155;BME280;25875;48.202;16.334;2023-09-30T00:17:42;99489.78;;;18.12;58.41
40155;BME280;25875;48.202;16.334;2023-09-30T00:20:09;99489.06;;;18.10;57.98
40155;BME280;25875;48.202;16.334;2023-09-30T00:22:38;99459.28;;;17.92;57.63
40155;BME280;25875;48.202;16.334;2023-09-30T00:25:06;99488.72;;;18.03;58.13
40155;BME280;25875;48.202;16.334;2023-09-30T00:27:33;99483.69;;;18.10;57.23
40155;BME280;25875;48.202;16.334;2023-09-30T00:30:00;99484.69;;;18.09;58.79
40155;BME280;25875;48.202;16.334;2023-09-30T00:32:26;99481.88;;;18.10;58.56
40155;BME280;25875;48.202;16.334;2023-09-30T00:34:53;99476.91;;;18.06;57.82
40155;BME280;25875;48.202;16.334;2023-09-30T00:37:20;99480.75;;;18.13;58.35
40155;BME280;25875;48.202;16.334;2023-09-30T00:39:48;99479.19;;;18.10;57.97
40155;BME280;25875;48.202;16.334;2023-09-30T00:42:15;99472.91;;;18.00;58.33
40155;BME280;25875;48.202;16.334;2023-09-30T00:44:42;99434.75;;;17.76;59.24
40155;BME280;25875;48.202;16.334;2023-09-30T00:47:08;99469.09;;;18.03;59.48
40155;BME280;25875;48.202;16.334;2023-09-30T00:49:36;99471.41;;;18.07;59.00
40155;BME280;25875;48.202;16.334;2023-09-30T00:52:03;99468.25;;;18.02;60.15
40155;BME280;25875;48.202;16.334;2023-09-30T00:54:30;99469.25;;;18.01;59.64
40155;BME280;25875;48.202;16.334;2023-09-30T00:56:59;99472.03;;;18.00;59.95
40155;BME280;25875;48.202;16.334;2023-09-30T00:59:28;99321.66;;;17.07;59.59
40155;BME280;25875;48.202;16.334;2023-09-30T01:01:56;99474.59;;;18.01;61.26
40155;BME280;25875;48.202;16.334;2023-09-30T01:04:26;99441.53;;;17.80;58.92
40155;BME280;25875;48.202;16.334;2023-09-30T01:06:53;99479.88;;;17.91;60.99
40155;BME280;25875;48.202;16.334;2023-09-30T01:09:22;99445.97;;;17.70;60.30
40155;BME280;25875;48.202;16.334;2023-09-30T01:11:49;99478.31;;;17.89;61.19
40155;BME280;25875;48.202;16.334;2023-09-30T01:14:28;99487.31;;;17.88;60.37
40155;BME280;25875;48.202;16.334;2023-09-30T01:16:55;99453.16;;;17.69;61.33
40155;BME280;25875;48.202;16.334;2023-09-30T01:19:22;99425.91;;;17.53;62.36
40155;BME280;25875;48.202;16.334;2023-09-30T01:21:52;99489.66;;;17.81;61.30
40155;BME280;25875;48.202;16.334;2023-09-30T01:24:20;99400.28;;;17.28;60.86
40155;BME280;25875;48.202;16.334;2023-09-30T01:26:47;99481.50;;;17.83;61.35
40155;BME280;25875;48.202;16.334;2023-09-30T01:29:13;99488.09;;;17.79;61.24
40155;BME280;25875;48.202;16.334;2023-09-30T01:31:40;99489.66;;;17.81;61.18
40155;BME280;25875;48.202;16.334;2023-09-30T01:34:07;99488.09;;;17.79;60.89
40155;BME280;25875;48.202;16.334;2023-09-30T01:36:36;99488.72;;;17.71;61.57
40155;BME280;25875;48.202;16.334;2023-09-30T01:39:04;99441.50;;;17.48;61.08
40155;BME280;25875;48.202;16.334;2023-09-30T01:41:32;99383.97;;;17.09;62.25
40155;BME280;25875;48.202;16.334;2023-09-30T01:43:59;99503.22;;;17.69;61.14
40155;BME280;25875;48.202;16.334;2023-09-30T01:46:26;99502.84;;;17.73;61.64
40155;BME280;25875;48.202;16.334;2023-09-30T01:48:53;99500.44;;;17.70;61.12
40155;BME280;25875;48.202;16.334;2023-09-30T01:51:19;99467.91;;;17.52;60.56
40155;BME280;25875;48.202;16.334;2023-09-30T01:53:47;99494.69;;;17.75;61.67
40155;BME280;25875;48.202;16.334;2023-09-30T01:56:15;99505.91;;;17.69;61.77
40155;BME280;25875;48.202;16.334;2023-09-30T01:58:42;99496.78;;;17.71;61.28
40155;BME280;25875;48.202;16.334;2023-09-30T02:01:09;99504.44;;;17.76;61.36
40155;BME280;25875;48.202;16.334;2023-09-30T02:03:36;99501.19;;;17.61;60.36
40155;BME280;25875;48.202;16.334;2023-09-30T02:06:03;99477.91;;;17.61;61.75
40155;BME280;25875;48.202;16.334;2023-09-30T02:08:30;99496.16;;;17.68;60.78
40155;BME280;25875;48.202;16.334;2023-09-30T02:10:57;99497.38;;;17.75;61.23
40155;BME280;25875;48.202;16.334;2023-09-30T02:13:25;99506.97;;;17.77;61.97
40155;BME280;25875;48.202;16.334;2023-09-30T02:15:52;99511.84;;;17.83;62.10
40155;BME280;25875;48.202;16.334;2023-09-30T02:18:20;99479.34;;;17.54;61.05
40155;BME280;25875;48.202;16.334;2023-09-30T02:20:49;99490.22;;;17.64;61.66
40155;BME280;25875;48.202;16.334;2023-09-30T02:23:16;99482.88;;;17.55;61.13
40155;BME280;25875;48.202;16.334;2023-09-30T02:25:42;99519.41;;;17.78;61.86
40155;BME280;25875;48.202;16.334;2023-09-30T02:28:09;99519.16;;;17.81;61.85
40155;BME280;25875;48.202;16.334;2023-09-30T02:30:38;99520.13;;;17.80;61.53
40155;BME280;25875;48.202;16.334;2023-09-30T02:33:05;99505.88;;;17.80;61.31
40155;BME280;25875;48.202;16.334;2023-09-30T02:35:32;99483.13;;;17.74;61.54
40155;BME280;25875;48.202;16.334;2023-09-30T02:37:59;99524.31;;;18.05;61.11
40155;BME280;25875;48.202;16.334;2023-09-30T02:40:26;99516.00;;;18.08;61.11
40155;BME280;25875;48.202;16.334;2023-09-30T02:42:52;99517.34;;;18.14;61.02
40155;BME280;25875;48.202;16.334;2023-09-30T02:45:19;99527.53;;;18.20;60.99
40155;BME280;25875;48.202;16.334;2023-09-30T02:47:47;99519.09;;;18.24;60.68
40155;BME280;25875;48.202;16.334;2023-09-30T02:50:14;99489.66;;;18.13;60.76
40155;BME280;25875;48.202;16.334;2023-09-30T02:52:40;99525.41;;;18.35;60.72
40155;BME280;25875;48.202;16.334;2023-09-30T02:55:08;99513.56;;;18.37;60.48
40155;BME280;25875;48.202;16.334;2023-09-30T02:57:35;99426.38;;;17.90;60.52
40155;BME280;25875;48.202;16.334;2023-09-30T03:00:02;99519.25;;;18.44;60.17
40155;BME280;25875;48.202;16.334;2023-09-30T03:02:37;99509.25;;;18.46;60.69
40155;BME280;25875;48.202;16.334;2023-09-30T03:05:07;99511.66;;;18.49;60.50
40155;BME280;25875;48.202;16.334;2023-09-30T03:07:33;99512.16;;;18.54;61.87
40155;BME280;25875;48.202;16.334;2023-09-30T03:10:00;99507.38;;;18.57;61.99
40155;BME280;25875;48.202;16.334;2023-09-30T03:12:30;99515.16;;;18.61;61.17
40155;BME280;25875;48.202;16.334;2023-09-30T03:14:57;99517.84;;;18.61;61.45
40155;BME280;25875;48.202;16.334;2023-09-30T03:17:24;99518.31;;;18.66;62.24
40155;BME280;25875;48.202;16.334;2023-09-30T03:19:51;99517.31;;;18.67;62.06
40155;BME280;25875;48.202;16.334;2023-09-30T03:22:20;99487.78;;;18.46;61.45
40155;BME280;25875;48.202;16.334;2023-09-30T03:24:47;99494.38;;;18.42;62.04
40155;BME280;25875;48.202;16.334;2023-09-30T03:27:14;99518.91;;;18.69;62.25
40155;BME280;25875;48.202;16.334;2023-09-30T03:29:41;99518.63;;;18.72;62.23
40155;BME280;25875;48.202;16.334;2023-09-30T03:32:07;99519.47;;;18.73;61.87
40155;BME280;25875;48.202;16.334;2023-09-30T03:34:34;99446.28;;;18.29;62.28
40155;BME280;25875;48.202;16.334;2023-09-30T03:37:02;99490.28;;;18.58;62.11
40155;BME280;25875;48.202;16.334;2023-09-30T03:39:33;99521.75;;;18.77;62.12
40155;BME280;25875;48.202;16.334;2023-09-30T03:42:00;99521.75;;;18.77;62.60
40155;BME280;25875;48.202;16.334;2023-09-30T03:44:28;99521.75;;;18.77;62.60
40155;BME280;25875;48.202;16.334;2023-09-30T03:46:55;99528.72;;;18.80;62.42
40155;BME280;25875;48.202;16.334;2023-09-30T03:49:22;99527.31;;;18.85;62.97
40155;BME280;25875;48.202;16.334;2023-09-30T03:51:49;99544.28;;;18.86;63.47
40155;BME280;25875;48.202;16.334;2023-09-30T03:54:16;99546.84;;;18.87;63.86
40155;BME280;25875;48.202;16.334;2023-09-30T03:56:45;99515.75;;;18.64;64.67
40155;BME280;25875;48.202;16.334;2023-09-30T03:59:12;99552.88;;;18.80;65.77
40155;BME280;25875;48.202;16.334;2023-09-30T04:01:38;99556.72;;;18.87;65.85
40155;BME280;25875;48.202;16.334;2023-09-30T04:04:06;99562.81;;;18.89;66.90
40155;BME280;25875;48.202;16.334;2023-09-30T04:06:35;99571.59;;;18.91;66.85
40155;BME280;25875;48.202;16.334;2023-09-30T04:09:04;99572.44;;;18.91;67.77
40155;BME280;25875;48.202;16.334;2023-09-30T04:11:35;99522.50;;;18.58;67.16
40155;BME280;25875;48.202;16.334;2023-09-30T04:14:04;99581.81;;;18.97;67.34
40155;BME280;25875;48.202;16.334;2023-09-30T04:16:31;99555.22;;;18.73;68.14
40155;BME280;25875;48.202;16.334;2023-09-30T04:18:58;99591.97;;;18.94;67.10
40155;BME280;25875;48.202;16.334;2023-09-30T04:21:25;99518.94;;;18.37;67.95
40155;BME280;25875;48.202;16.334;2023-09-30T04:23:53;99593.22;;;18.89;67.94
40155;BME280;25875;48.202;16.334;2023-09-30T04:26:20;99596.75;;;18.90;67.97
40155;BME280;25875;48.202;16.334;2023-09-30T04:28:46;99584.44;;;18.87;68.34
40155;BME280;25875;48.202;16.334;2023-09-30T04:31:16;99591.97;;;18.73;68.60
40155;BME280;25875;48.202;16.334;2023-09-30T04:33:43;99542.84;;;18.61;68.17
40155;BME280;25875;48.202;16.334;2023-09-30T04:36:10;99596.34;;;18.95;67.75
40155;BME280;25875;48.202;16.334;2023-09-30T04:38:37;99612.00;;;18.89;67.89
40155;BME280;25875;48.202;16.334;2023-09-30T04:41:04;99571.13;;;18.65;68.54
40155;BME280;25875;48.202;16.334;2023-09-30T04:43:32;99622.88;;;18.88;68.56
40155;BME280;25875;48.202;16.334;2023-09-30T04:46:00;99547.25;;;18.30;68.04
40155;BME280;25875;48.202;16.334;2023-09-30T04:48:28;99624.44;;;18.90;68.43
40155;BME280;25875;48.202;16.334;2023-09-30T04:50:55;99630.94;;;18.88;68.22
40155;BME280;25875;48.202;16.334;2023-09-30T04:53:22;99640.56;;;18.90;68.54
40155;BME280;25875;48.202;16.334;2023-09-30T04:55:49;99644.50;;;18.86;68.38
40155;BME280;25875;48.202;16.334;2023-09-30T04:58:16;99637.09;;;18.79;68.39
40155;BME280;25875;48.202;16.334;2023-09-30T05:00:43;99641.22;;;18.83;68.35
40155;BME280;25875;48.202;16.334;2023-09-30T05:03:10;99647.31;;;18.85;67.92
40155;BME280;25875;48.202;16.334;2023-09-30T05:05:38;99655.09;;;18.88;68.54
40155;BME280;25875;48.202;16.334;2023-09-30T05:08:05;99661.03;;;18.71;69.70
40155;BME280;25875;48.202;16.334;2023-09-30T05:10:32;99668.06;;;18.83;68.74
40155;BME280;25875;48.202;16.334;2023-09-30T05:12:59;99671.13;;;18.78;68.93
40155;BME280;25875;48.202;16.334;2023-09-30T05:15:26;99674.81;;;18.77;68.69
40155;BME280;25875;48.202;16.334;2023-09-30T05:17:54;99682.72;;;18.79;68.70
40155;BME280;25875;48.202;16.334;2023-09-30T05:20:23;99689.69;;;18.81;67.89
40155;BME280;25875;48.202;16.334;2023-09-30T05:22:51;99623.91;;;18.44;68.09
40155;BME280;25875;48.202;16.334;2023-09-30T05:25:17;99695.31;;;18.78;68.13
40155;BME280;25875;48.202;16.334;2023-09-30T05:27:45;99694.06;;;18.82;68.21
40155;BME280;25875;48.202;16.334;2023-09-30T05:30:13;99699.44;;;18.82;68.15
40155;BME280;25875;48.202;16.334;2023-09-30T05:32:41;99651.22;;;18.49;68.34
40155;BME280;25875;48.202;16.334;2023-09-30T05:35:08;99705.06;;;18.79;68.09
40155;BME280;25875;48.202;16.334;2023-09-30T05:37:39;99701.00;;;18.85;68.17
40155;BME280;25875;48.202;16.334;2023-09-30T05:40:09;99671.44;;;18.64;68.08
40155;BME280;25875;48.202;16.334;2023-09-30T05:42:45;99701.53;;;18.79;67.85
40155;BME280;25875;48.202;16.334;2023-09-30T05:45:12;99713.72;;;18.83;67.94
40155;BME280;25875;48.202;16.334;2023-09-30T05:47:39;99708.22;;;18.84;67.93
40155;BME280;25875;48.202;16.334;2023-09-30T05:50:06;99713.47;;;18.86;67.18
40155;BME280;25875;48.202;16.334;2023-09-30T05:52:34;99710.06;;;18.84;67.65
40155;BME280;25875;48.202;16.334;2023-09-30T05:55:03;99716.34;;;18.62;67.51
40155;BME280;25875;48.202;16.334;2023-09-30T05:57:31;99669.28;;;18.47;67.07
40155;BME280;25875;48.202;16.334;2023-09-30T05:59:58;99733.16;;;18.75;67.29
40155;BME280;25875;48.202;16.334;2023-09-30T06:02:25;99697.09;;;18.57;67.56
40155;BME280;25875;48.202;16.334;2023-09-30T06:04:51;99676.63;;;18.34;66.98
40155;BME280;25875;48.202;16.334;2023-09-30T06:07:19;99735.84;;;18.75;66.84
40155;BME280;25875;48.202;16.334;2023-09-30T06:09:46;99731.91;;;18.79;66.59
40155;BME280;25875;48.202;16.334;2023-09-30T06:12:13;99727.53;;;18.78;66.47
40155;BME280;25875;48.202;16.334;2023-09-30T06:14:41;99728.03;;;18.72;66.93
40155;BME280;25875;48.202;16.334;2023-09-30T06:17:09;99676.84;;;18.42;66.71
40155;BME280;25875;48.202;16.334;2023-09-30T06:19:35;99728.75;;;18.74;66.68
40155;BME280;25875;48.202;16.334;2023-09-30T06:22:03;99738.78;;;18.72;66.30
40155;BME280;25875;48.202;16.334;2023-09-30T06:24:30;99736.47;;;18.68;66.74
40155;BME280;25875;48.202;16.334;2023-09-30T06:26:56;99744.28;;;18.71;67.02
40155;BME280;25875;48.202;16.334;2023-09-30T06:29:23;99746.09;;;18.70;66.03
40155;BME280;25875;48.202;16.334;2023-09-30T06:31:51;99753.56;;;18.67;66.25
40155;BME280;25875;48.202;16.334;2023-09-30T06:34:18;99746.69;;;18.74;65.94
40155;BME280;25875;48.202;16.334;2023-09-30T06:36:45;99732.97;;;18.56;65.70
40155;BME280;25875;48.202;16.334;2023-09-30T06:39:11;99756.13;;;18.68;65.90
40155;BME280;25875;48.202;16.334;2023-09-30T06:41:38;99762.56;;;18.77;66.20
40155;BME280;25875;48.202;16.334;2023-09-30T06:44:05;99761.84;;;18.75;65.93
40155;BME280;25875;48.202;16.334;2023-09-30T06:46:32;99759.28;;;18.73;66.31
40155;BME280;25875;48.202;16.334;2023-09-30T06:49:00;99753.91;;;18.73;65.86
40155;BME280;25875;48.202;16.334;2023-09-30T06:51:27;99756.84;;;18.70;65.44
40155;BME280;25875;48.202;16.334;2023-09-30T06:53:54;99751.47;;;18.70;65.87
40155;BME280;25875;48.202;16.334;2023-09-30T06:56:21;99627.22;;;17.93;65.80
40155;BME280;25875;48.202;16.334;2023-09-30T06:58:48;99731.00;;;18.58;66.35
40155;BME280;25875;48.202;16.334;2023-09-30T07:01:15;99767.06;;;18.76;65.92
40155;BME280;25875;48.202;16.334;2023-09-30T07:03:43;99724.53;;;18.49;65.78
40155;BME280;25875;48.202;16.334;2023-09-30T07:06:11;99771.34;;;18.79;65.47
40155;BME280;25875;48.202;16.334;2023-09-30T07:08:38;99773.78;;;18.82;65.16
40155;BME280;25875;48.202;16.334;2023-09-30T07:11:05;99765.59;;;18.83;65.55
40155;BME280;25875;48.202;16.334;2023-09-30T07:13:33;99759.38;;;18.83;65.16
40155;BME280;25875;48.202;16.334;2023-09-30T07:16:00;99752.66;;;18.77;65.40
40155;BME280;25875;48.202;16.334;2023-09-30T07:18:27;99761.44;;;18.79;65.74
40155;BME280;25875;48.202;16.334;2023-09-30T07:20:54;99755.69;;;18.84;64.93
40155;BME280;25875;48.202;16.334;2023-09-30T07:23:22;99758.72;;;18.90;64.99
40155;BME280;25875;48.202;16.334;2023-09-30T07:25:49;99759.91;;;18.98;64.65
40155;BME280;25875;48.202;16.334;2023-09-30T07:28:16;99767.72;;;19.01;64.63
40155;BME280;25875;48.202;16.334;2023-09-30T07:30:43;99723.66;;;18.71;63.87
40155;BME280;25875;48.202;16.334;2023-09-30T07:33:10;99767.47;;;19.04;64.16
40155;BME280;25875;48.202;16.334;2023-09-30T07:35:37;99772.72;;;19.05;64.02
40155;BME280;25875;48.202;16.334;2023-09-30T07:38:04;99772.00;;;19.03;63.44
40155;BME280;25875;48.202;16.334;2023-09-30T07:40:33;99773.69;;;19.04;63.75
40155;BME280;25875;48.202;16.334;2023-09-30T07:42:59;99774.03;;;19.11;63.90
40155;BME280;25875;48.202;16.334;2023-09-30T07:45:26;99765.97;;;19.11;64.09
40155;BME280;25875;48.202;16.334;2023-09-30T07:47:53;99769.38;;;19.13;63.95
40155;BME280;25875;48.202;16.334;2023-09-30T07:50:20;99732.13;;;18.87;63.90
40155;BME280;25875;48.202;16.334;2023-09-30T07:52:47;99701.66;;;18.77;63.38
40155;BME280;25875;48.202;16.334;2023-09-30T07:55:13;99769.91;;;19.28;63.96
40155;BME280;25875;48.202;16.334;2023-09-30T07:57:42;99786.78;;;19.30;63.35
40155;BME280;25875;48.202;16.334;2023-09-30T08:00:10;99782.97;;;19.32;63.82
40155;BME280;25875;48.202;16.334;2023-09-30T08:02:41;99791.47;;;19.48;62.89
40155;BME280;25875;48.202;16.334;2023-09-30T08:05:09;99781.75;;;19.57;62.34
40155;BME280;25875;48.202;16.334;2023-09-30T08:07:36;99774.28;;;19.61;61.52
40155;BME280;25875;48.202;16.334;2023-09-30T08:10:04;99779.19;;;19.76;61.83
40155;BME280;25875;48.202;16.334;2023-09-30T08:12:32;99762.16;;;19.66;61.42
40155;BME280;25875;48.202;16.334;2023-09-30T08:15:00;99771.84;;;19.78;61.72
40155;BME280;25875;48.202;16.334;2023-09-30T08:17:28;99749.63;;;19.55;61.40
40155;BME280;25875;48.202;16.334;2023-09-30T08:19:55;99782.41;;;19.70;61.97
40155;BME280;25875;48.202;16.334;2023-09-30T08:22:22;99791.59;;;19.68;61.21
40155;BME280;25875;48.202;16.334;2023-09-30T08:24:53;99799.72;;;19.77;61.15
40155;BME280;25875;48.202;16.334;2023-09-30T08:27:19;99794.97;;;19.81;61.42
40155;BME280;25875;48.202;16.334;2023-09-30T08:29:46;99788.06;;;19.88;61.10
40155;BME280;25875;48.202;16.334;2023-09-30T08:32:14;99792.06;;;19.94;60.67
40155;BME280;25875;48.202;16.334;2023-09-30T08:34:41;99788.00;;;19.99;60.75
40155;BME280;25875;48.202;16.334;2023-09-30T08:37:08;99808.13;;;20.05;59.88
40155;BME280;25875;48.202;16.334;2023-09-30T08:39:37;99768.31;;;19.78;60.49
40155;BME280;25875;48.202;16.334;2023-09-30T08:42:07;99791.56;;;20.09;59.87
40155;BME280;25875;48.202;16.334;2023-09-30T08:44:36;99774.63;;;20.18;60.01
40155;BME280;25875;48.202;16.334;2023-09-30T08:47:05;99790.56;;;20.31;59.95
40155;BME280;25875;48.202;16.334;2023-09-30T08:49:37;99788.31;;;20.36;59.59
40155;BME280;25875;48.202;16.334;2023-09-30T08:52:06;99721.94;;;19.85;59.09
40155;BME280;25875;48.202;16.334;2023-09-30T08:54:33;99741.97;;;20.02;59.16
40155;BME280;25875;48.202;16.334;2023-09-30T08:57:00;99780.66;;;20.32;58.60
40155;BME280;25875;48.202;16.334;2023-09-30T08:59:29;99787.63;;;20.44;58.97
40155;BME280;25875;48.202;16.334;2023-09-30T09:01:56;99786.06;;;20.41;58.94
40155;BME280;25875;48.202;16.334;2023-09-30T09:04:24;99734.25;;;20.18;58.79
40155;BME280;25875;48.202;16.334;2023-09-30T09:06:54;99778.72;;;20.43;58.35
40155;BME280;25875;48.202;16.334;2023-09-30T09:09:21;99676.22;;;19.85;58.00
40155;BME280;25875;48.202;16.334;2023-09-30T09:11:49;99781.97;;;20.47;58.27
40155;BME280;25875;48.202;16.334;2023-09-30T09:14:16;99788.34;;;20.46;58.46
40155;BME280;25875;48.202;16.334;2023-09-30T09:16:52;99780.88;;;20.59;58.58
40155;BME280;25875;48.202;16.334;2023-09-30T09:19:19;99780.16;;;20.57;58.33
40155;BME280;25875;48.202;16.334;2023-09-30T09:21:56;99784.44;;;20.69;57.56
40155;BME280;25875;48.202;16.334;2023-09-30T09:24:30;99787.28;;;20.68;58.15
40155;BME280;25875;48.202;16.334;2023-09-30T09:27:03;99785.56;;;20.67;58.28
40155;BME280;25875;48.202;16.334;2023-09-30T09:29:30;99770.25;;;20.67;58.01
40155;BME280;25875;48.202;16.334;2023-09-30T09:32:07;99717.91;;;20.41;57.11
40155;BME280;25875;48.202;16.334;2023-09-30T09:34:33;99794.25;;;20.80;57.49
40155;BME280;25875;48.202;16.334;2023-09-30T09:37:16;99795.50;;;20.76;57.66
40155;BME280;25875;48.202;16.334;2023-09-30T09:39:50;99726.38;;;20.27;58.19
40155;BME280;25875;48.202;16.334;2023-09-30T09:42:25;99797.47;;;20.64;58.02
40155;BME280;25875;48.202;16.334;2023-09-30T09:44:54;99769.09;;;20.50;57.13
40155;BME280;25875;48.202;16.334;2023-09-30T09:47:21;99780.16;;;20.57;57.31
40155;BME280;25875;48.202;16.334;2023-09-30T09:49:50;99805.84;;;20.71;57.96
40155;BME280;25875;48.202;16.334;2023-09-30T09:52:20;99711.44;;;20.13;58.38
40155;BME280;25875;48.202;16.334;2023-09-30T09:54:47;99815.34;;;20.65;58.00
40155;BME280;25875;48.202;16.334;2023-09-30T09:57:16;99800.44;;;20.61;58.14
40155;BME280;25875;48.202;16.334;2023-09-30T09:59:44;99794.06;;;20.62;58.13
40155;BME280;25875;48.202;16.334;2023-09-30T10:02:13;99805.56;;;20.64;58.51
40155;BME280;25875;48.202;16.334;2023-09-30T10:04:42;99808.25;;;20.64;58.19
40155;BME280;25875;48.202;16.334;2023-09-30T10:07:14;99800.03;;;20.66;58.55
40155;BME280;25875;48.202;16.334;2023-09-30T10:09:47;99798.00;;;20.48;58.57
40155;BME280;25875;48.202;16.334;2023-09-30T10:12:17;99717.91;;;20.01;58.72
40155;BME280;25875;48.202;16.334;2023-09-30T10:14:46;99782.38;;;20.42;58.58
40155;BME280;25875;48.202;16.334;2023-09-30T10:17:14;99802.97;;;20.53;58.15
40155;BME280;25875;48.202;16.334;2023-09-30T10:20:06;99797.44;;;20.55;58.81
40155;BME280;25875;48.202;16.334;2023-09-30T10:22:33;99804.09;;;20.50;58.34
40155;BME280;25875;48.202;16.334;2023-09-30T10:28:38;99800.72;;;20.58;58.55
40155;BME280;25875;48.202;16.334;2023-09-30T10:31:14;99789.94;;;20.58;59.38
40155;BME280;25875;48.202;16.334;2023-09-30T10:34:18;99797.03;;;20.59;59.28
40155;BME280;25875;48.202;16.334;2023-09-30T10:36:46;99808.06;;;20.56;59.70
40155;BME280;25875;48.202;16.334;2023-09-30T10:42:45;99796.88;;;20.51;58.88
40155;BME280;25875;48.202;16.334;2023-09-30T10:48:37;99804.94;;;20.51;59.30
40155;BME280;25875;48.202;16.334;2023-09-30T10:51:16;99810.47;;;20.49;59.57
40155;BME280;25875;48.202;16.334;2023-09-30T10:53:48;99806.66;;;20.52;59.35
40155;BME280;25875;48.202;16.334;2023-09-30T10:56:17;99797.03;;;20.59;59.54
40155;BME280;25875;48.202;16.334;2023-09-30T10:58:46;99793.78;;;20.65;59.29
40155;BME280;25875;48.202;16.334;2023-09-30T11:01:15;99763.44;;;20.63;58.26
40155;BME280;25875;48.202;16.334;2023-09-30T11:03:42;99730.97;;;20.45;58.61
40155;BME280;25875;48.202;16.334;2023-09-30T11:06:12;99685.72;;;20.30;57.97
40155;BME280;25875;48.202;16.334;2023-09-30T11:08:45;99755.53;;;20.81;57.54
40155;BME280;25875;48.202;16.334;2023-09-30T11:11:12;99784.63;;;20.97;57.89
40155;BME280;25875;48.202;16.334;2023-09-30T11:13:40;99785.47;;;20.97;58.12
40155;BME280;25875;48.202;16.334;2023-09-30T11:16:08;99753.97;;;20.78;58.53
40155;BME280;25875;48.202;16.334;2023-09-30T11:18:35;99296.69;;;18.12;57.54
40155;BME280;25875;48.202;16.334;2023-09-30T11:21:04;99778.53;;;20.95;58.08
40155;BME280;25875;48.202;16.334;2023-09-30T11:23:32;99778.94;;;20.90;57.22
40155;BME280;25875;48.202;16.334;2023-09-30T11:25:59;99769.31;;;20.88;58.08
40155;BME280;25875;48.202;16.334;2023-09-30T11:28:35;99769.88;;;20.91;58.26
40155;BME280;25875;48.202;16.334;2023-09-30T11:31:02;99768.88;;;20.92;58.31
40155;BME280;25875;48.202;16.334;2023-09-30T11:33:47;99774.69;;;20.88;57.57
40155;BME280;25875;48.202;16.334;2023-09-30T11:36:15;99772.13;;;20.86;57.57
40155;BME280;25875;48.202;16.334;2023-09-30T11:38:45;99783.06;;;20.85;57.74
40155;BME280;25875;48.202;16.334;2023-09-30T11:41:13;99775.69;;;20.87;57.84
40155;BME280;25875;48.202;16.334;2023-09-30T11:43:58;99773.97;;;20.76;58.08
40155;BME280;25875;48.202;16.334;2023-09-30T11:46:26;99779.94;;;20.89;57.70
40155;BME280;25875;48.202;16.334;2023-09-30T11:48:58;99770.88;;;20.90;58.01
40155;BME280;25875;48.202;16.334;2023-09-30T11:51:26;99776.81;;;20.94;57.60
40155;BME280;25875;48.202;16.334;2023-09-30T11:53:53;99744.34;;;20.76;57.62
40155;BME280;25875;48.202;16.334;2023-09-30T11:56:20;99725.19;;;20.60;57.59
40155;BME280;25875;48.202;16.334;2023-09-30T11:58:47;99777.25;;;20.89;57.40
40155;BME280;25875;48.202;16.334;2023-09-30T12:01:16;99740.91;;;20.64;57.78
40155;BME280;25875;48.202;16.334;2023-09-30T12:03:43;99754.25;;;20.75;58.00
40155;BME280;25875;48.202;16.334;2023-09-30T12:06:11;99770.44;;;20.95;57.53
40155;BME280;25875;48.202;16.334;2023-09-30T12:08:39;99779.38;;;20.95;57.85
40155;BME280;25875;48.202;16.334;2023-09-30T12:11:06;99776.81;;;20.94;57.51
40155;BME280;25875;48.202;16.334;2023-09-30T12:13:32;99687.72;;;20.37;58.27
40155;BME280;25875;48.202;16.334;2023-09-30T12:16:02;99780.50;;;20.93;57.63
40155;BME280;25875;48.202;16.334;2023-09-30T12:18:29;99573.66;;;19.69;57.59
40155;BME280;25875;48.202;16.334;2023-09-30T12:20:56;99777.69;;;20.94;58.31
40155;BME280;25875;48.202;16.334;2023-09-30T12:23:24;99776.53;;;20.97;57.73
40155;BME280;25875;48.202;16.334;2023-09-30T12:25:51;99774.28;;;21.02;57.85
40155;BME280;25875;48.202;16.334;2023-09-30T12:28:19;99734.69;;;20.73;57.49
40155;BME280;25875;48.202;16.334;2023-09-30T12:30:46;99775.03;;;21.04;57.49
40155;BME280;25875;48.202;16.334;2023-09-30T12:33:13;99704.78;;;20.67;58.15
40155;BME280;25875;48.202;16.334;2023-09-30T12:35:39;99644.09;;;20.24;58.80
40155;BME280;25875;48.202;16.334;2023-09-30T12:38:06;99776.41;;;20.98;59.01
40155;BME280;25875;48.202;16.334;2023-09-30T12:40:34;99766.19;;;21.02;59.05
40155;BME280;25875;48.202;16.334;2023-09-30T12:43:01;99772.31;;;21.04;59.43
40155;BME280;25875;48.202;16.334;2023-09-30T12:45:29;99771.59;;;21.02;59.67
40155;BME280;25875;48.202;16.334;2023-09-30T12:47:55;99701.94;;;20.59;58.78
40155;BME280;25875;48.202;16.334;2023-09-30T12:50:23;99746.19;;;20.75;58.68
40155;BME280;25875;48.202;16.334;2023-09-30T12:52:50;99729.16;;;20.65;59.62
40155;BME280;25875;48.202;16.334;2023-09-30T12:55:17;99775.13;;;20.93;59.46
40155;BME280;25875;48.202;16.334;2023-09-30T12:57:45;99723.63;;;20.67;60.27
40155;BME280;25875;48.202;16.334;2023-09-30T13:00:12;99763.50;;;20.92;58.32
40155;BME280;25875;48.202;16.334;2023-09-30T13:02:41;99766.19;;;20.92;58.42
40155;BME280;25875;48.202;16.334;2023-09-30T13:05:08;99767.75;;;20.95;59.33